createdAt,value
2019-06-10T00:00:21.842Z,40.87
2019-06-10T00:02:46.278Z,40.74
2019-06-10T00:05:12.907Z,40.70
2019-06-10T00:07:41.059Z,40.64
2019-06-10T00:10:07.425Z,40.60
2019-06-10T00:12:32.837Z,40.69
2019-06-10T00:15:01.856Z,40.77
2019-06-10T00:17:26.115Z,40.65
2019-06-10T00:19:52.749Z,40.57
2019-06-10T00:22:21.423Z,40.65
2019-06-10T00:24:46.034Z,40.78
2019-06-10T00:27:12.669Z,40.65
2019-06-10T00:29:40.895Z,40.70
2019-06-10T00:32:08.002Z,41.32
2019-06-10T00:34:34.974Z,42.17
2019-06-10T00:37:01.987Z,42.67
2019-06-10T00:39:25.860Z,43.40
2019-06-10T00:41:52.569Z,43.47
2019-06-10T00:44:20.580Z,43.18
2019-06-10T00:46:45.850Z,43.09
2019-06-10T00:49:14.553Z,42.90
2019-06-10T00:51:41.327Z,43.00
2019-06-10T00:54:07.007Z,42.79
2019-06-10T00:56:32.455Z,42.82
2019-06-10T00:59:01.005Z,42.92
2019-06-10T01:01:25.742Z,42.47
2019-06-10T01:03:52.382Z,42.36
2019-06-10T01:06:21.255Z,42.30
2019-06-10T01:08:45.684Z,42.21
2019-06-10T01:11:21.267Z,42.05
2019-06-10T01:13:41.247Z,42.03
2019-06-10T01:16:05.648Z,42.15
2019-06-10T01:18:38.368Z,41.74
2019-06-10T01:20:58.943Z,41.75
2019-06-10T01:25:52.219Z,41.56
2019-06-10T01:28:18.866Z,41.48
2019-06-10T01:30:45.515Z,41.48
2019-06-10T01:33:14.380Z,41.19
2019-06-10T01:35:41.188Z,41.50
2019-06-10T01:38:05.874Z,41.25
2019-06-10T01:40:32.078Z,41.91
2019-06-10T01:43:00.950Z,42.63
2019-06-10T01:47:52.011Z,43.23
2019-06-10T01:50:19.658Z,43.85
2019-06-10T01:52:45.288Z,43.86
2019-06-10T01:55:13.795Z,43.44
2019-06-10T01:57:38.609Z,43.66
2019-06-10T02:00:09.256Z,43.50
2019-06-10T02:02:34.876Z,43.35
2019-06-10T02:04:58.581Z,43.07
2019-06-10T02:07:25.230Z,43.12
2019-06-10T02:09:51.916Z,43.01
2019-06-10T02:12:20.149Z,42.87
2019-06-10T02:14:45.180Z,42.56
2019-06-10T02:19:38.483Z,42.51
2019-06-10T02:22:05.118Z,42.36
2019-06-10T02:24:31.810Z,42.22
2019-06-10T02:27:00.908Z,42.18
2019-06-10T02:29:25.108Z,42.03
2019-06-10T02:31:52.312Z,41.88
2019-06-10T02:34:26.153Z,41.77
2019-06-10T02:36:45.046Z,41.78
2019-06-10T02:39:16.708Z,41.63
2019-06-10T02:41:38.388Z,41.49
2019-06-10T02:44:05.097Z,41.61
2019-06-10T02:46:35.981Z,41.59
2019-06-10T02:49:17.564Z,41.46
2019-06-10T02:51:30.797Z,41.38
2019-06-10T02:53:53.790Z,41.95
2019-06-10T02:56:20.009Z,42.74
2019-06-10T02:58:45.262Z,42.84
2019-06-10T03:01:14.713Z,43.37
2019-06-10T03:03:44.222Z,43.44
2019-06-10T03:06:06.430Z,43.79
2019-06-10T03:08:35.696Z,44.20
2019-06-10T03:10:58.080Z,44.15
2019-06-10T03:13:25.682Z,44.30
2019-06-10T03:15:52.249Z,44.81
2019-06-10T03:18:18.019Z,44.84
2019-06-10T03:20:44.658Z,45.01
2019-06-10T03:25:37.931Z,45.03
2019-06-10T03:28:04.567Z,44.97
2019-06-10T03:30:47.127Z,44.85
2019-06-10T03:32:57.845Z,44.97
2019-06-10T03:35:25.715Z,44.81
2019-06-10T03:37:52.791Z,45.03
2019-06-10T03:40:18.535Z,44.97
2019-06-10T03:42:44.467Z,44.92
2019-06-10T03:45:12.690Z,45.28
2019-06-10T03:47:37.755Z,45.34
2019-06-10T03:50:04.400Z,44.96
2019-06-10T03:52:32.429Z,44.94
2019-06-10T03:57:26.850Z,43.23
2019-06-10T03:59:52.756Z,43.03
2019-06-10T04:02:17.701Z,42.59
2019-06-10T04:04:47.373Z,41.91
2019-06-10T04:07:14.311Z,41.62
2019-06-10T04:09:42.511Z,41.24
2019-06-10T04:12:07.433Z,40.80
2019-06-10T04:14:34.071Z,41.20
2019-06-10T04:19:28.709Z,41.37
2019-06-10T04:21:54.026Z,40.83
2019-06-10T04:24:22.706Z,40.70
2019-06-10T04:29:13.955Z,40.88
2019-06-10T04:31:42.471Z,40.88
2019-06-10T04:34:07.243Z,40.77
2019-06-10T04:36:33.895Z,40.54
2019-06-10T04:39:03.011Z,40.57
2019-06-10T04:41:28.034Z,40.51
2019-06-10T04:43:53.909Z,40.48
2019-06-10T04:46:22.832Z,40.89
2019-06-10T04:51:13.923Z,41.08
2019-06-10T04:53:43.248Z,41.31
2019-06-10T04:56:08.664Z,41.47
2019-06-10T04:58:33.909Z,41.56
2019-06-10T05:01:02.804Z,41.70
2019-06-10T05:03:28.096Z,41.91
2019-06-10T05:05:53.859Z,42.03
2019-06-10T05:08:21.582Z,42.30
2019-06-10T05:10:47.143Z,42.23
2019-06-10T05:13:13.791Z,42.49
2019-06-10T05:15:43.151Z,42.63
2019-06-10T05:18:07.111Z,42.57
2019-06-10T05:20:51.091Z,42.66
2019-06-10T05:23:02.280Z,42.55
2019-06-10T05:25:28.398Z,42.37
2019-06-10T05:27:56.843Z,42.49
2019-06-10T05:30:25.991Z,42.46
2019-06-10T05:35:16.775Z,42.13
2019-06-10T05:37:43.497Z,41.98
2019-06-10T05:40:12.574Z,41.77
2019-06-10T05:42:36.801Z,42.04
2019-06-10T05:45:03.835Z,41.66
2019-06-10T05:47:33.274Z,41.56
2019-06-10T05:49:57.146Z,41.63
2019-06-10T05:52:25.827Z,41.49
2019-06-10T05:54:52.128Z,41.46
2019-06-10T05:57:17.115Z,41.33
2019-06-10T05:59:43.782Z,41.28
2019-06-10T06:02:12.745Z,40.77
2019-06-10T06:04:37.056Z,41.10
2019-06-10T06:07:03.696Z,41.10
2019-06-10T06:09:33.485Z,40.75
2019-06-10T06:11:56.997Z,40.88
2019-06-10T06:14:23.637Z,40.54
2019-06-10T06:16:53.183Z,40.57
2019-06-10T06:19:16.916Z,41.20
2019-06-10T06:21:47.621Z,40.57
2019-06-10T06:24:12.636Z,40.02
2019-06-10T06:26:38.372Z,40.32
2019-06-10T06:31:32.466Z,40.23
2019-06-10T06:33:56.999Z,39.96
2019-06-10T06:36:23.640Z,39.42
2019-06-10T06:38:52.862Z,39.20
2019-06-10T06:41:16.945Z,39.33
2019-06-10T06:43:45.455Z,39.37
2019-06-10T06:46:12.639Z,39.01
2019-06-10T06:48:39.092Z,39.32
2019-06-10T06:51:08.096Z,38.80
2019-06-10T06:53:42.097Z,38.68
2019-06-10T06:55:56.821Z,38.70
2019-06-10T06:58:23.475Z,38.86
2019-06-10T07:01:03.767Z,38.89
2019-06-10T07:03:16.808Z,38.98
2019-06-10T07:05:43.480Z,39.01
2019-06-10T07:08:12.895Z,39.16
2019-06-10T07:10:37.378Z,39.41
2019-06-10T07:13:03.404Z,39.45
2019-06-10T07:15:31.824Z,39.45
2019-06-10T07:17:56.727Z,39.34
2019-06-10T07:20:23.369Z,39.72
2019-06-10T07:22:50.016Z,39.82
2019-06-10T07:25:16.664Z,39.57
2019-06-10T07:27:46.405Z,39.82
2019-06-10T07:30:12.495Z,39.89
2019-06-10T07:32:38.762Z,39.94
2019-06-10T07:35:03.247Z,40.34
2019-06-10T07:37:32.386Z,40.53
2019-06-10T07:39:56.565Z,40.70
2019-06-10T07:42:23.203Z,40.61
2019-06-10T07:44:49.903Z,40.72
2019-06-10T07:47:16.536Z,40.82
2019-06-10T07:49:44.285Z,40.61
2019-06-10T07:52:18.511Z,40.98
2019-06-10T07:54:37.557Z,40.76
2019-06-10T07:57:03.131Z,40.76
2019-06-10T07:59:32.147Z,40.82
2019-06-10T08:01:56.483Z,40.81
2019-06-10T08:04:23.051Z,40.84
2019-06-10T08:06:50.696Z,40.68
2019-06-10T08:09:16.452Z,40.68
2019-06-10T08:11:46.735Z,40.71
2019-06-10T08:14:09.728Z,40.85
2019-06-10T08:16:37.763Z,40.93
2019-06-10T08:19:26.158Z,40.96
2019-06-10T08:21:32.179Z,40.88
2019-06-10T08:23:56.530Z,40.72
2019-06-10T08:26:23.385Z,40.52
2019-06-10T08:28:49.831Z,40.58
2019-06-10T08:31:16.474Z,40.81
2019-06-10T08:33:46.189Z,40.96
2019-06-10T08:36:09.763Z,40.99
2019-06-10T08:38:36.448Z,41.02
2019-06-10T08:41:03.430Z,40.89
2019-06-10T08:43:29.707Z,40.95
2019-06-10T08:45:56.350Z,40.99
2019-06-10T08:48:23.123Z,40.94
2019-06-10T08:50:50.204Z,41.05
2019-06-10T08:53:18.277Z,41.10
2019-06-10T08:55:46.085Z,41.15
2019-06-10T08:58:09.660Z,41.14
2019-06-10T09:00:37.384Z,41.17
2019-06-10T09:03:04.028Z,41.12
2019-06-10T09:05:32.376Z,41.30
2019-06-10T09:07:56.308Z,41.64
2019-06-10T09:12:52.056Z,41.69
2019-06-10T09:15:16.259Z,41.84
2019-06-10T09:17:47.582Z,42.11
2019-06-10T09:20:09.552Z,42.19
2019-06-10T09:22:36.198Z,42.11
2019-06-10T09:25:03.081Z,42.33
2019-06-10T09:27:29.674Z,42.25
2019-06-10T09:29:56.316Z,42.40
2019-06-10T09:32:23.520Z,42.38
2019-06-10T09:34:52.733Z,42.33
2019-06-10T09:37:16.255Z,42.35
2019-06-10T09:39:49.831Z,42.43
2019-06-10T09:42:09.573Z,42.29
2019-06-10T09:44:36.242Z,42.14
2019-06-10T09:47:03.477Z,42.35
2019-06-10T09:49:29.559Z,42.42
2019-06-10T09:51:57.635Z,42.41
2019-06-10T09:54:23.314Z,42.83
2019-06-10T09:56:50.482Z,42.96
2019-06-10T09:59:16.198Z,42.79
2019-06-10T10:01:48.199Z,42.91
2019-06-10T10:04:09.480Z,43.22
2019-06-10T10:06:36.115Z,43.33
2019-06-10T10:09:04.017Z,43.75
2019-06-10T10:11:29.428Z,43.86
2019-06-10T10:13:56.068Z,43.56
2019-06-10T10:16:23.203Z,43.39
2019-06-10T10:18:56.593Z,44.00
2019-06-10T10:21:16.073Z,44.40
2019-06-10T10:23:58.309Z,44.26
2019-06-10T10:26:09.388Z,44.14
2019-06-10T10:28:36.031Z,43.95
2019-06-10T10:31:04.392Z,44.15
2019-06-10T10:33:32.618Z,43.61
2019-06-10T10:35:56.144Z,43.82
2019-06-10T10:38:23.065Z,44.33
2019-06-10T10:40:50.631Z,44.28
2019-06-10T10:43:25.181Z,44.30
2019-06-10T10:45:45.314Z,44.30
2019-06-10T10:48:09.226Z,44.32
2019-06-10T10:50:35.909Z,44.91
2019-06-10T10:53:02.548Z,44.67
2019-06-10T10:55:29.186Z,44.49
2019-06-10T11:00:22.686Z,45.27
2019-06-10T11:02:51.029Z,45.11
2019-06-10T11:05:15.829Z,44.84
2019-06-10T11:07:44.202Z,45.29
2019-06-10T11:10:09.106Z,45.33
2019-06-10T11:12:35.745Z,44.85
2019-06-10T11:15:05.103Z,45.01
2019-06-10T11:17:29.027Z,45.05
2019-06-10T11:19:55.913Z,45.18
2019-06-10T11:22:23.260Z,45.21
2019-06-10T11:24:49.267Z,45.43
2019-06-10T11:27:15.610Z,45.57
2019-06-10T11:29:42.378Z,45.22
2019-06-10T11:32:08.891Z,45.42
2019-06-10T11:34:35.538Z,45.60
2019-06-10T11:37:02.393Z,45.65
2019-06-10T11:39:28.827Z,45.71
2019-06-10T11:41:56.395Z,45.70
2019-06-10T11:44:22.527Z,45.82
2019-06-10T11:46:48.781Z,45.95
2019-06-10T11:49:15.431Z,45.87
2019-06-10T11:51:42.067Z,45.75
2019-06-10T11:56:35.342Z,46.01
2019-06-10T11:59:09.198Z,46.18
2019-06-10T12:01:28.666Z,45.94
2019-06-10T12:03:57.594Z,46.06
2019-06-10T12:06:22.890Z,46.16
2019-06-10T12:08:48.943Z,46.51
2019-06-10T12:11:15.202Z,46.42
2019-06-10T12:13:42.866Z,46.71
2019-06-10T12:18:35.178Z,46.18
2019-06-10T12:21:03.705Z,46.25
2019-06-10T12:23:28.478Z,46.16
2019-06-10T12:25:56.760Z,46.20
2019-06-10T12:28:21.764Z,46.12
2019-06-10T12:30:48.429Z,46.29
2019-06-10T12:33:21.387Z,46.32
2019-06-10T12:35:42.310Z,46.10
2019-06-10T12:38:08.388Z,45.98
2019-06-10T12:40:35.030Z,45.93
2019-06-10T12:43:05.029Z,46.09
2019-06-10T12:45:28.323Z,46.21
2019-06-10T12:47:58.045Z,46.13
2019-06-10T12:50:21.593Z,46.66
2019-06-10T12:52:48.265Z,46.58
2019-06-10T12:55:14.912Z,46.30
2019-06-10T12:57:42.834Z,46.14
2019-06-10T13:00:19.684Z,46.12
2019-06-10T13:02:34.847Z,46.25
2019-06-10T13:05:04.754Z,45.93
2019-06-10T13:07:28.135Z,45.50
2019-06-10T13:09:55.555Z,45.52
2019-06-10T13:12:22.958Z,45.42
2019-06-10T13:14:48.072Z,45.50
2019-06-10T13:17:14.708Z,44.97
2019-06-10T13:19:43.231Z,44.84
2019-06-10T13:22:08.901Z,44.76
2019-06-10T13:24:34.667Z,44.83
2019-06-10T13:27:03.429Z,44.45
2019-06-10T13:29:27.959Z,44.53
2019-06-10T13:31:55.898Z,44.83
2019-06-10T13:34:22.151Z,44.38
2019-06-10T13:36:47.890Z,44.30
2019-06-10T13:39:14.539Z,43.98
2019-06-10T13:41:43.763Z,44.18
2019-06-10T13:44:08.383Z,43.53
2019-06-10T13:46:34.473Z,43.90
2019-06-10T13:49:03.993Z,43.91
2019-06-10T13:51:27.775Z,44.07
2019-06-10T13:53:54.412Z,44.41
2019-06-10T13:56:39.912Z,44.31
2019-06-10T13:58:47.690Z,44.65
2019-06-10T14:01:21.670Z,45.03
2019-06-10T14:03:43.133Z,45.69
2019-06-10T14:06:21.041Z,45.52
2019-06-10T14:08:34.288Z,45.49
2019-06-10T14:11:06.834Z,45.51
2019-06-10T14:13:27.553Z,45.53
2019-06-10T14:15:54.568Z,45.23
2019-06-10T14:18:22.900Z,44.90
2019-06-10T14:20:47.537Z,44.65
2019-06-10T14:23:17.595Z,44.59
2019-06-10T14:25:42.369Z,44.58
2019-06-10T14:28:10.202Z,44.33
2019-06-10T14:33:02.851Z,44.54
2019-06-10T14:35:27.406Z,44.38
2019-06-10T14:37:54.055Z,44.10
2019-06-10T14:40:22.013Z,44.02
2019-06-10T14:42:47.344Z,43.58
2019-06-10T14:45:16.638Z,43.75
2019-06-10T14:47:42.984Z,44.15
2019-06-10T14:50:07.284Z,43.96
2019-06-10T14:52:33.922Z,43.54
2019-06-10T14:55:02.655Z,43.86
2019-06-10T14:57:27.212Z,43.61
2019-06-10T14:59:53.884Z,43.74
2019-06-10T15:02:20.520Z,44.00
2019-06-10T15:04:47.157Z,43.97
2019-06-10T15:07:13.795Z,43.52
2019-06-10T15:09:43.029Z,43.43
2019-06-10T15:12:07.569Z,43.31
2019-06-10T15:14:33.744Z,43.46
2019-06-10T15:17:02.831Z,43.20
2019-06-10T15:19:29.171Z,43.01
2019-06-10T15:21:53.663Z,43.37
2019-06-10T15:24:21.120Z,43.60
2019-06-10T15:26:46.944Z,43.07
2019-06-10T15:29:15.598Z,43.14
2019-06-10T15:31:42.700Z,43.20
2019-06-10T15:34:06.888Z,43.40
2019-06-10T15:36:33.533Z,43.11
2019-06-10T15:41:26.797Z,42.86
2019-06-10T15:43:53.434Z,43.00
2019-06-10T15:46:20.895Z,42.83
2019-06-10T15:48:46.752Z,42.79
2019-06-10T15:51:16.066Z,42.75
2019-06-10T15:53:40.038Z,42.93
2019-06-10T15:56:16.724Z,42.67
2019-06-10T15:58:33.356Z,42.61
2019-06-10T16:03:26.724Z,42.56
2019-06-10T16:05:53.373Z,42.63
2019-06-10T16:08:20.286Z,42.69
2019-06-10T16:10:46.660Z,42.57
2019-06-10T16:13:14.453Z,42.44
2019-06-10T16:15:39.952Z,42.84
2019-06-10T16:18:06.600Z,42.47
2019-06-10T16:20:33.234Z,42.56
2019-06-10T16:22:59.878Z,42.93
2019-06-10T16:25:26.728Z,43.09
2019-06-10T16:27:55.978Z,42.82
2019-06-10T16:30:23.281Z,42.73
2019-06-10T16:32:49.267Z,42.89
2019-06-10T16:35:16.775Z,43.24
2019-06-10T16:37:42.546Z,42.82
2019-06-10T16:40:09.180Z,42.69
2019-06-10T16:42:35.839Z,42.71
2019-06-10T16:45:02.618Z,42.87
2019-06-10T16:47:29.834Z,42.76
2019-06-10T16:49:55.784Z,42.70
2019-06-10T16:52:25.366Z,42.54
2019-06-10T16:54:49.057Z,42.78
2019-06-10T16:57:15.701Z,42.49
2019-06-10T16:59:42.901Z,42.39
2019-06-10T17:02:09.002Z,42.50
2019-06-10T17:04:35.642Z,42.40
2019-06-10T17:07:02.358Z,42.46
2019-06-10T17:09:29.528Z,42.91
2019-06-10T17:11:55.605Z,42.57
2019-06-10T17:14:24.181Z,42.56
2019-06-10T17:16:48.915Z,42.38
2019-06-10T17:19:15.559Z,42.39
2019-06-10T17:24:08.835Z,42.49
2019-06-10T17:26:38.141Z,42.41
2019-06-10T17:29:02.877Z,42.55
2019-06-10T17:31:32.075Z,42.40
2019-06-10T17:33:55.438Z,42.41
2019-06-10T17:36:24.817Z,42.38
2019-06-10T17:38:48.724Z,42.49
2019-06-10T17:41:15.422Z,42.49
2019-06-10T17:43:45.335Z,42.58
2019-06-10T17:46:12.400Z,42.61
2019-06-10T17:48:38.601Z,42.87
2019-06-10T17:51:05.238Z,42.68
2019-06-10T17:53:34.716Z,42.70
2019-06-10T17:55:58.519Z,42.66
2019-06-10T17:58:40.575Z,42.91
2019-06-10T18:00:53.074Z,42.83
2019-06-10T18:03:18.438Z,42.81
2019-06-10T18:05:45.075Z,42.74
2019-06-10T18:08:13.101Z,42.82
2019-06-10T18:10:38.343Z,42.77
2019-06-10T18:13:16.081Z,42.64
2019-06-10T18:15:35.377Z,42.56
2019-06-10T18:17:58.265Z,43.14
2019-06-10T18:20:24.901Z,43.04
2019-06-10T18:22:52.963Z,42.93
2019-06-10T18:25:18.169Z,42.83
2019-06-10T18:27:44.817Z,42.78
2019-06-10T18:30:14.191Z,42.71
2019-06-10T18:32:38.103Z,42.95
2019-06-10T18:35:04.796Z,42.87
2019-06-10T18:37:34.470Z,43.23
2019-06-10T18:39:58.078Z,42.93
2019-06-10T18:42:24.713Z,42.99
2019-06-10T18:44:52.231Z,42.88
2019-06-10T18:47:18.055Z,42.90
2019-06-10T18:49:44.690Z,43.36
2019-06-10T18:54:37.968Z,43.05
2019-06-10T18:57:04.639Z,43.07
2019-06-10T18:59:33.157Z,43.38
2019-06-10T19:01:57.958Z,43.09
2019-06-10T19:04:24.566Z,43.17
2019-06-10T19:06:52.769Z,43.17
2019-06-10T19:09:17.851Z,43.53
2019-06-10T19:11:44.616Z,43.46
2019-06-10T19:14:12.835Z,43.38
2019-06-10T19:16:38.584Z,43.32
2019-06-10T19:19:04.505Z,43.25
2019-06-10T19:21:32.353Z,43.02
2019-06-10T19:23:57.787Z,43.12
2019-06-10T19:26:24.416Z,43.54
2019-06-10T19:28:53.338Z,43.25
2019-06-10T19:31:17.775Z,43.41
2019-06-10T19:33:45.414Z,43.46
2019-06-10T19:38:38.397Z,43.41
2019-06-10T19:41:04.400Z,43.33
2019-06-10T19:43:33.335Z,43.29
2019-06-10T19:45:57.848Z,43.09
2019-06-10T19:48:24.320Z,43.62
2019-06-10T19:50:53.775Z,43.39
2019-06-10T19:53:17.625Z,43.24
2019-06-10T19:55:45.944Z,43.50
2019-06-10T19:58:13.262Z,43.43
2019-06-10T20:00:37.565Z,43.33
2019-06-10T20:03:04.194Z,43.07
2019-06-10T20:05:32.640Z,43.10
2019-06-10T20:07:57.466Z,43.14
2019-06-10T20:10:24.105Z,43.17
2019-06-10T20:12:53.461Z,43.50
2019-06-10T20:15:17.423Z,43.44
2019-06-10T20:17:44.055Z,43.35
2019-06-10T20:20:12.667Z,43.39
2019-06-10T20:22:37.334Z,43.59
2019-06-10T20:25:03.983Z,43.68
2019-06-10T20:27:32.952Z,43.62
2019-06-10T20:30:06.930Z,43.51
2019-06-10T20:32:23.886Z,43.55
2019-06-10T20:34:52.896Z,43.44
2019-06-10T20:37:17.192Z,43.48
2019-06-10T20:39:46.061Z,43.52
2019-06-10T20:42:12.768Z,43.37
2019-06-10T20:44:38.271Z,43.46
2019-06-10T20:47:03.779Z,43.35
2019-06-10T20:49:32.530Z,44.39
2019-06-10T20:52:09.937Z,44.56
2019-06-10T20:54:23.710Z,44.80
2019-06-10T20:56:52.867Z,44.85
2019-06-10T20:59:16.986Z,45.11
2019-06-10T21:01:46.130Z,45.29
2019-06-10T21:04:12.588Z,44.83
2019-06-10T21:06:36.995Z,44.73
2019-06-10T21:09:03.634Z,44.97
2019-06-10T21:11:32.211Z,44.83
2019-06-10T21:13:56.925Z,44.77
2019-06-10T21:16:23.635Z,44.51
2019-06-10T21:18:54.955Z,44.53
2019-06-10T21:21:17.041Z,44.70
2019-06-10T21:23:45.021Z,44.48
2019-06-10T21:26:12.441Z,44.35
2019-06-10T21:28:37.164Z,44.33
2019-06-10T21:31:03.795Z,44.38
2019-06-10T21:33:30.439Z,44.54
2019-06-10T21:35:57.071Z,44.42
2019-06-10T21:38:23.725Z,44.53
2019-06-10T21:40:52.736Z,44.47
2019-06-10T21:43:16.995Z,44.42
2019-06-10T21:45:49.081Z,44.68
2019-06-10T21:48:12.310Z,44.45
2019-06-10T21:50:36.954Z,44.38
2019-06-10T21:53:03.612Z,44.36
2019-06-10T21:55:32.587Z,44.43
2019-06-10T21:57:56.895Z,44.35
2019-06-10T22:00:23.587Z,44.38
2019-06-10T22:02:51.084Z,44.21
2019-06-10T22:05:16.881Z,44.38
2019-06-10T22:07:43.869Z,44.39
2019-06-10T22:10:12.627Z,44.39
2019-06-10T22:12:36.798Z,44.33
2019-06-10T22:15:03.442Z,44.44
2019-06-10T22:17:30.070Z,45.27
2019-06-10T22:19:56.749Z,46.17
2019-06-10T22:22:23.394Z,46.55
2019-06-10T22:24:51.282Z,46.63
2019-06-10T22:27:16.706Z,47.27
2019-06-10T22:29:43.337Z,46.74
2019-06-10T22:32:10.002Z,46.68
2019-06-10T22:34:36.633Z,46.74
2019-06-10T22:39:29.918Z,46.39
2019-06-10T22:41:57.032Z,46.46
2019-06-10T22:44:24.346Z,46.41
2019-06-10T22:46:52.165Z,46.28
2019-06-10T22:49:16.503Z,46.02
2019-06-10T22:51:44.132Z,46.13
2019-06-10T22:54:09.782Z,46.07
2019-06-10T22:56:36.422Z,45.77
2019-06-10T22:59:03.519Z,45.68
2019-06-10T23:01:35.083Z,45.52
2019-06-10T23:03:56.383Z,45.44
2019-06-10T23:06:23.348Z,45.21
2019-06-10T23:08:50.348Z,45.13
2019-06-10T23:13:42.924Z,45.02
2019-06-10T23:16:09.602Z,44.94
2019-06-10T23:18:36.231Z,44.75
2019-06-10T23:21:04.442Z,44.86
2019-06-10T23:23:29.515Z,44.80
2019-06-10T23:25:56.153Z,44.92
2019-06-10T23:28:22.790Z,44.73
2019-06-10T23:30:50.026Z,44.59
2019-06-10T23:33:16.068Z,44.56
2019-06-10T23:35:43.170Z,44.49
2019-06-10T23:38:09.333Z,44.39
2019-06-10T23:40:35.968Z,44.57
2019-06-10T23:43:03.920Z,44.48
2019-06-10T23:45:29.344Z,44.49
2019-06-10T23:47:57.528Z,44.50
2019-06-10T23:50:22.767Z,44.47
2019-06-10T23:52:49.282Z,44.28
2019-06-10T23:55:15.951Z,44.25
